Terminal Aerodrome Forecast
Issued by NWS

Current Version | Previous Version | Graphics & Text | Print | Product List | Glossary On
Versions: 1 2 3 4 5 6 7 8 9 10 11 12 13 14 15 16 17 18 19 20 21 22
223
FTUS41 KPBZ 171438 AAA
TAFMGW
TAF AMD
KMGW 171438Z 1715/1812 18010G16KT P6SM -SHRA SCT020 BKN035
      WS020/20035KT
     FM180000 24008KT P6SM VCSH OVC025
     FM180700 24008KT P6SM BKN015 PROB30 1808/1812 4SM -RA OVC015=

USA.gov is the U.S. government's official web portal to all federal, state and local government web resources and services.